Time;durP1;ratioP1;P1;durP2;ratioP2;P2;SDS_P1;SDS_P2;PMS_P1;PMS_P2;Temp;Humidity;BMP_temperature;BMP_pressure;BME280_temperature;BME280_humidity;BME280_pressure;Samples;Min_cycle;Max_cycle;Signal;HPM_P1;HPM_P2
2023/04/01 11:21:55;;;;;;;1.40;1.00;;;19.50;99.90;;;;;;5042543;27;20413;-70
2023/04/01 11:24:54;;;;;;;0.70;0.70;;;19.60;99.90;;;;;;5015634;28;20077;-70
2023/04/01 11:28:01;;;;;;;3.30;1.00;;;19.60;99.90;;;;;;5007763;28;20033;-72
2023/04/01 11:30:48;;;;;;;4.25;0.70;;;19.60;99.90;;;;;;5007755;28;20056;-71
2023/04/01 11:33:23;;;;;;;1.02;0.93;;;19.60;99.90;;;;;;5026484;28;20053;-72
2023/04/01 11:36:18;;;;;;;1.80;0.88;;;19.60;99.90;;;;;;5001455;28;20034;-71
2023/04/01 11:39:11;;;;;;;2.17;1.00;;;19.60;99.90;;;;;;4988302;28;20051;-70
2023/04/01 11:41:58;;;;;;;2.25;1.00;;;19.60;99.90;;;;;;4988004;28;20093;-71
2023/04/01 11:44:27;;;;;;;1.67;0.88;;;19.60;99.90;;;;;;4992535;28;20545;-71
2023/04/01 11:47:08;;;;;;;0.90;0.90;;;19.60;99.90;;;;;;4994603;28;20118;-68
2023/04/01 11:50:01;;;;;;;1.77;1.00;;;19.90;99.90;;;;;;5001226;28;20034;-67
2023/04/01 11:52:37;;;;;;;1.65;0.80;;;20.00;99.90;;;;;;4983277;28;20037;-67
2023/04/01 11:55:28;;;;;;;1.67;1.02;;;20.10;99.90;;;;;;4983853;28;20618;-68
2023/04/01 11:58:30;;;;;;;3.42;1.00;;;20.00;99.90;;;;;;5000061;28;20421;-67
2023/04/01 12:01:07;;;;;;;0.70;0.70;;;19.90;99.90;;;;;;4995677;28;20381;-68
2023/04/01 12:04:11;;;;;;;1.33;0.98;;;19.90;99.90;;;;;;4989194;28;20038;-68
2023/04/01 12:06:56;;;;;;;1.08;1.05;;;19.80;99.90;;;;;;4984949;28;20129;-68
2023/04/01 12:09:58;;;;;;;0.60;0.60;;;19.80;99.90;;;;;;4989655;28;20022;-68
2023/04/01 12:12:36;;;;;;;1.38;0.80;;;19.70;99.90;;;;;;4980149;28;20497;-69
2023/04/01 12:15:13;;;;;;;0.88;0.50;;;19.80;99.90;;;;;;4967581;28;20022;-68
2023/04/01 12:17:45;;;;;;;2.35;0.63;;;19.50;99.90;;;;;;4984599;28;20023;-69
2023/04/01 12:20:21;;;;;;;1.15;0.90;;;19.70;99.90;;;;;;4984065;28;20109;-69
2023/04/01 12:23:02;;;;;;;2.65;1.10;;;19.70;99.90;;;;;;4968149;28;20031;-69
2023/04/01 12:25:55;;;;;;;5.30;1.02;;;19.70;99.90;;;;;;4974780;28;20039;-70
2023/04/01 12:28:51;;;;;;;0.88;0.82;;;19.60;99.90;;;;;;4999490;28;20424;-69
2023/04/01 12:31:34;;;;;;;1.02;0.80;;;19.60;99.90;;;;;;4974199;28;20033;-69
2023/04/01 12:34:18;;;;;;;1.30;0.68;;;19.60;99.90;;;;;;4990664;28;20045;-69
2023/04/01 12:36:52;;;;;;;1.38;0.95;;;19.60;99.90;;;;;;4967399;28;20441;-69
2023/04/01 12:39:49;;;;;;;1.00;0.80;;;19.60;99.90;;;;;;4974125;28;20117;-68
2023/04/01 12:42:34;;;;;;;1.15;0.90;;;19.60;99.90;;;;;;4980722;28;20027;-69
2023/04/01 12:45:17;;;;;;;1.25;1.00;;;19.60;99.90;;;;;;4953263;29;20110;-68
2023/04/01 12:48:03;;;;;;;1.00;0.98;;;19.50;99.90;;;;;;4972484;28;20525;-68
2023/04/01 12:50:37;;;;;;;2.00;1.05;;;19.50;99.90;;;;;;4974061;28;20038;-69
2023/04/01 12:53:34;;;;;;;1.48;0.95;;;19.50;99.90;;;;;;4984401;28;20103;-69
2023/04/01 12:56:03;;;;;;;2.55;0.82;;;19.50;99.90;;;;;;4971593;28;20486;-69
2023/04/01 12:58:50;;;;;;;2.50;1.10;;;19.50;99.90;;;;;;4969594;28;20043;-69
2023/04/01 13:01:49;;;;;;;1.58;0.93;;;19.60;99.90;;;;;;4971632;28;20027;-69
2023/04/01 13:04:39;;;;;;;2.97;0.82;;;19.50;99.90;;;;;;4972972;28;20381;-68
2023/04/01 13:07:11;;;;;;;1.85;0.80;;;19.50;99.90;;;;;;4964752;28;20022;-68
2023/04/01 13:09:58;;;;;;;3.92;1.33;;;19.50;99.90;;;;;;4986849;28;20436;-67
2023/04/01 13:12:30;;;;;;;3.67;0.88;;;19.50;99.90;;;;;;5002628;28;20305;-67
2023/04/01 13:15:04;;;;;;;3.35;1.45;;;19.40;99.90;;;;;;4998125;28;20420;-68
2023/04/01 13:17:41;;;;;;;2.38;1.02;;;19.50;99.90;;;;;;4998945;28;20041;-68
2023/04/01 13:20:10;;;;;;;2.80;1.10;;;19.50;99.90;;;;;;4982967;28;20445;-68
2023/04/01 13:22:54;;;;;;;2.80;0.80;;;19.50;99.90;;;;;;4984423;28;20041;-68
2023/04/01 13:25:38;;;;;;;2.85;1.40;;;19.50;99.90;;;;;;4983921;28;20043;-68
2023/04/01 13:28:28;;;;;;;2.97;1.00;;;19.50;99.90;;;;;;4986296;28;20121;-67
2023/04/01 13:31:06;;;;;;;3.22;1.15;;;19.50;99.90;;;;;;4976603;28;20060;-68
2023/04/01 13:33:43;;;;;;;1.98;0.90;;;19.50;99.90;;;;;;4986957;28;20482;-68
2023/04/01 13:36:27;;;;;;;4.32;0.98;;;19.50;99.90;;;;;;4983385;28;20038;-68
2023/04/01 13:39:00;;;;;;;3.13;1.08;;;19.50;99.90;;;;;;4991022;28;20038;-68
2023/04/01 13:42:03;;;;;;;1.25;1.08;;;19.60;99.90;;;;;;4984057;28;20035;-67
2023/04/01 13:44:37;;;;;;;1.05;0.88;;;19.60;99.90;;;;;;4988672;28;20063;-68
2023/04/01 13:47:08;;;;;;;1.45;1.00;;;19.60;99.90;;;;;;4975896;28;20034;-66
2023/04/01 13:50:05;;;;;;;2.08;1.10;;;19.60;99.90;;;;;;4985633;28;20062;-67
2023/04/01 13:53:08;;;;;;;1.60;0.80;;;19.60;99.90;;;;;;4989580;28;20022;-67
2023/04/01 13:55:51;;;;;;;1.98;1.05;;;19.60;99.90;;;;;;4983742;28;20084;-67
2023/04/01 13:58:41;;;;;;;1.00;0.90;;;19.70;99.90;;;;;;4989863;28;20488;-67
2023/04/01 14:01:13;;;;;;;1.73;0.90;;;19.60;99.90;;;;;;4989751;28;20405;-67
2023/04/01 14:04:12;;;;;;;1.15;0.93;;;19.60;99.90;;;;;;4995134;28;20106;-67
2023/04/01 14:07:09;;;;;;;2.03;0.90;;;19.70;99.90;;;;;;4985092;28;20030;-67
2023/04/01 14:09:56;;;;;;;1.58;0.70;;;19.70;99.90;;;;;;4988008;28;20030;-68
2023/04/01 14:12:48;;;;;;;1.30;1.00;;;19.70;99.90;;;;;;4996898;28;20441;-68
2023/04/01 14:15:35;;;;;;;0.80;0.80;;;19.70;99.90;;;;;;4976027;28;20030;-67
2023/04/01 14:18:38;;;;;;;2.90;0.80;;;19.70;99.90;;;;;;4989070;28;20034;-67
2023/04/01 14:21:24;;;;;;;2.42;1.15;;;19.70;99.90;;;;;;4989598;28;20089;-67
2023/04/01 14:24:04;;;;;;;2.42;1.02;;;19.70;99.90;;;;;;4983845;28;20096;-67
2023/04/01 14:26:38;;;;;;;1.20;1.00;;;19.70;99.90;;;;;;5008638;28;20040;-67
2023/04/01 14:29:30;;;;;;;1.23;0.80;;;19.70;99.90;;;;;;4992288;28;20015;-68
2023/04/01 14:32:07;;;;;;;1.73;1.02;;;19.70;99.90;;;;;;4983259;28;20112;-67
2023/04/01 14:34:33;;;;;;;1.02;0.93;;;19.70;99.90;;;;;;4991530;28;20509;-68
2023/04/01 14:37:13;;;;;;;1.02;0.93;;;19.70;99.90;;;;;;4990128;28;20085;-68
2023/04/01 14:40:05;;;;;;;4.40;1.38;;;19.70;99.90;;;;;;5002861;28;20560;-70
2023/04/01 14:42:53;;;;;;;3.70;0.80;;;19.70;99.90;;;;;;4987948;28;20030;-67
2023/04/01 14:45:54;;;;;;;2.55;1.13;;;19.80;99.90;;;;;;4981557;28;20109;-68
